createdAt,value
2022-09-06T00:01:08.058Z,101679.56
2022-09-06T00:03:38.539Z,101674.19
2022-09-06T00:06:08.400Z,101676.88
2022-09-06T00:08:38.438Z,101673.22
2022-09-06T00:11:32.638Z,101675.88
2022-09-06T00:14:03.105Z,101670.81
2022-09-06T00:19:18.337Z,101663.75
2022-09-06T00:22:09.656Z,101668.97
2022-09-06T00:24:37.246Z,101676.19
2022-09-06T00:27:04.862Z,101655.56
2022-09-06T00:29:35.130Z,101656.38
2022-09-06T00:32:04.328Z,101657.25
2022-09-06T00:34:32.509Z,101661.75
2022-09-06T00:36:59.981Z,101654.44
2022-09-06T00:39:30.692Z,101655.25
2022-09-06T00:41:59.459Z,101658.94
2022-09-06T00:44:35.051Z,101657.53
2022-09-06T00:47:05.587Z,101661.75
2022-09-06T00:49:37.903Z,101658.09
2022-09-06T00:52:07.059Z,101661.59
2022-09-06T00:54:34.540Z,101654.03
2022-09-06T00:57:04.300Z,101660.38
2022-09-06T00:59:49.220Z,101669.25
2022-09-06T01:02:42.731Z,101661.94
2022-09-06T01:05:10.395Z,101665.72
2022-09-06T01:07:57.394Z,101667.28
2022-09-06T01:10:51.528Z,101672.47
2022-09-06T01:13:28.698Z,101660.91
2022-09-06T01:16:01.238Z,101655.41
2022-09-06T01:18:55.219Z,101648.34
2022-09-06T01:21:36.188Z,101668.97
2022-09-06T01:24:20.131Z,101662.06
2022-09-06T01:27:02.033Z,101664.75
2022-09-06T01:29:41.248Z,101663.88
2022-09-06T01:32:15.347Z,101664.91
2022-09-06T01:34:44.306Z,101658.69
2022-09-06T01:37:15.377Z,101655.00
2022-09-06T01:39:42.933Z,101651.34
2022-09-06T01:42:11.697Z,101652.19
2022-09-06T01:44:40.446Z,101652.31
2022-09-06T01:47:13.061Z,101638.06
2022-09-06T01:49:48.938Z,101643.44
2022-09-06T01:52:23.008Z,101643.59
2022-09-06T01:55:04.080Z,101642.59
2022-09-06T01:58:10.258Z,101644.56
2022-09-06T02:00:42.105Z,101648.25
2022-09-06T02:03:12.142Z,101641.03
2022-09-06T02:05:42.214Z,101649.22
2022-09-06T02:08:12.772Z,101650.94
2022-09-06T02:10:45.633Z,101641.19
2022-09-06T02:13:13.440Z,101640.22
2022-09-06T02:15:44.295Z,101639.50
2022-09-06T02:18:13.062Z,101635.97
2022-09-06T02:20:42.399Z,101626.25
2022-09-06T02:23:12.718Z,101630.75
2022-09-06T02:25:48.324Z,101643.88
2022-09-06T02:28:16.608Z,101633.13
2022-09-06T02:30:46.699Z,101636.81
2022-09-06T02:33:17.144Z,101629.75
2022-09-06T02:35:56.772Z,101641.31
2022-09-06T02:38:32.937Z,101636.97
2022-09-06T02:41:03.075Z,101636.25
2022-09-06T02:43:32.850Z,101625.53
2022-09-06T02:46:01.685Z,101630.88
2022-09-06T02:48:35.002Z,101627.22
2022-09-06T02:51:03.837Z,101625.38
2022-09-06T02:53:45.315Z,101631.75
2022-09-06T02:56:12.774Z,101636.41
2022-09-06T02:58:40.407Z,101646.00
2022-09-06T03:01:11.530Z,101634.56
2022-09-06T03:03:39.047Z,101632.72
2022-09-06T03:06:06.805Z,101622.84
2022-09-06T03:08:40.165Z,101634.56
2022-09-06T03:11:07.721Z,101628.66
2022-09-06T03:13:37.931Z,101624.97
2022-09-06T03:16:05.379Z,101619.59
2022-09-06T03:21:36.840Z,101637.41
2022-09-06T03:24:06.493Z,101636.41
2022-09-06T03:26:36.961Z,101619.59
2022-09-06T03:29:04.397Z,101625.53
2022-09-06T03:31:51.316Z,101626.38
2022-09-06T03:34:24.836Z,101626.81
2022-09-06T03:37:11.063Z,101621.44
2022-09-06T03:43:14.929Z,101610.72
2022-09-06T03:46:04.616Z,101607.91
2022-09-06T03:48:49.983Z,101609.19
2022-09-06T03:51:18.041Z,101611.88
2022-09-06T03:53:45.545Z,101610.03
2022-09-06T03:56:12.997Z,101610.16
2022-09-06T03:59:00.989Z,101605.34
2022-09-06T04:01:54.830Z,101611.88
2022-09-06T04:04:23.452Z,101616.50
2022-09-06T04:06:50.890Z,101619.19
2022-09-06T04:09:18.400Z,101613.00
2022-09-06T04:11:55.122Z,101615.69
2022-09-06T04:14:22.565Z,101613.53
2022-09-06T04:16:59.976Z,101606.50
2022-09-06T04:19:27.428Z,101612.16
2022-09-06T04:21:54.884Z,101599.59
2022-09-06T04:24:22.333Z,101596.91
2022-09-06T04:27:02.170Z,101588.88
2022-09-06T04:29:36.634Z,101594.38
2022-09-06T04:32:05.656Z,101591.69
2022-09-06T04:34:39.152Z,101586.47
2022-09-06T04:37:11.959Z,101599.88
2022-09-06T04:39:45.299Z,101594.66
2022-09-06T04:42:12.747Z,101597.34
2022-09-06T04:44:40.194Z,101596.22
2022-09-06T04:47:12.671Z,101586.72
2022-09-06T04:49:40.102Z,101589.41
2022-09-06T04:52:07.573Z,101597.19
2022-09-06T04:54:35.038Z,101587.06
2022-09-06T04:57:02.482Z,101584.94
2022-09-06T04:59:30.294Z,101591.13
2022-09-06T05:01:57.817Z,101592.28
2022-09-06T05:04:26.583Z,101593.28
2022-09-06T05:07:01.007Z,101589.28
2022-09-06T05:09:28.447Z,101583.38
2022-09-06T05:11:56.140Z,101583.94
2022-09-06T05:14:23.695Z,101584.94
2022-09-06T05:16:51.434Z,101582.13
2022-09-06T05:19:19.063Z,101574.63
2022-09-06T05:21:47.790Z,101580.84
2022-09-06T05:24:15.232Z,101581.25
2022-09-06T05:26:42.658Z,101576.59
2022-09-06T05:29:10.091Z,101576.19
2022-09-06T05:31:37.552Z,101582.81
2022-09-06T05:34:05.045Z,101579.44
2022-09-06T05:36:32.529Z,101591.88
2022-09-06T05:39:01.318Z,101587.34
2022-09-06T05:41:28.777Z,101582.69
2022-09-06T05:43:56.237Z,101589.91
2022-09-06T05:46:23.679Z,101585.50
2022-09-06T05:48:54.710Z,101585.78
2022-09-06T05:51:22.148Z,101585.38
2022-09-06T05:53:49.586Z,101584.09
2022-09-06T05:56:19.012Z,101592.31
2022-09-06T05:58:46.449Z,101589.66
2022-09-06T06:01:16.114Z,101583.19
2022-09-06T06:03:44.156Z,101587.13
2022-09-06T06:06:11.588Z,101579.78
2022-09-06T06:08:39.731Z,101574.97
2022-09-06T06:11:07.256Z,101567.06
2022-09-06T06:13:39.434Z,101566.22
2022-09-06T06:16:07.518Z,101559.16
2022-09-06T06:18:35.134Z,101554.69
2022-09-06T06:21:10.253Z,101555.50
2022-09-06T06:23:37.676Z,101559.03
2022-09-06T06:26:05.147Z,101565.13
2022-09-06T06:28:32.648Z,101566.22
2022-09-06T06:31:01.370Z,101568.78
2022-09-06T06:33:29.028Z,101573.44
2022-09-06T06:36:00.174Z,101571.63
2022-09-06T06:38:31.555Z,101575.00
2022-09-06T06:41:03.176Z,101567.13
2022-09-06T06:43:36.373Z,101575.56
2022-09-06T06:46:05.250Z,101570.06
2022-09-06T06:48:32.706Z,101563.88
2022-09-06T06:51:00.206Z,101566.97
2022-09-06T06:53:27.657Z,101560.19
2022-09-06T06:55:55.130Z,101555.41
2022-09-06T06:58:22.753Z,101561.19
2022-09-06T07:00:50.413Z,101558.78
2022-09-06T07:03:19.226Z,101559.50
2022-09-06T07:08:34.719Z,101562.44
2022-09-06T07:11:02.193Z,101558.06
2022-09-06T07:13:29.642Z,101547.38
2022-09-06T07:16:07.904Z,101551.34
2022-09-06T07:18:37.672Z,101551.06
2022-09-06T07:24:09.007Z,101557.81
2022-09-06T07:26:38.462Z,101557.69
2022-09-06T07:29:06.587Z,101559.50
2022-09-06T07:34:25.075Z,101568.66
2022-09-06T07:36:53.097Z,101567.13
2022-09-06T07:39:20.632Z,101568.94
2022-09-06T07:41:48.061Z,101568.53
2022-09-06T07:44:15.564Z,101569.25
2022-09-06T07:46:43.124Z,101562.75
2022-09-06T07:49:10.631Z,101566.66
2022-09-06T07:51:39.378Z,101569.34
2022-09-06T07:54:29.319Z,101561.06
2022-09-06T07:56:55.260Z,101562.47
2022-09-06T07:59:22.705Z,101557.25
2022-09-06T08:01:50.357Z,101560.63
2022-09-06T08:04:17.930Z,101567.69
2022-09-06T08:09:35.593Z,101551.34
2022-09-06T08:12:06.626Z,101564.88
2022-09-06T08:14:34.351Z,101549.09
2022-09-06T08:17:01.876Z,101550.50
2022-09-06T08:19:29.379Z,101551.63
2022-09-06T08:21:58.113Z,101550.47
2022-09-06T08:24:25.638Z,101557.41
2022-09-06T08:26:53.138Z,101568.81
2022-09-06T08:29:20.910Z,101571.06
2022-09-06T08:31:48.443Z,101568.41
2022-09-06T08:34:15.986Z,101560.91
2022-09-06T08:36:44.117Z,101570.53
2022-09-06T08:39:12.876Z,101560.34
2022-09-06T08:41:46.783Z,101559.63
2022-09-06T08:47:04.547Z,101557.25
2022-09-06T08:49:33.274Z,101548.22
2022-09-06T08:52:15.649Z,101539.91
2022-09-06T08:54:46.241Z,101535.69
2022-09-06T08:57:16.610Z,101535.28
2022-09-06T08:59:44.247Z,101543.13
2022-09-06T09:02:13.539Z,101539.78
2022-09-06T09:04:43.743Z,101540.31
2022-09-06T09:07:20.652Z,101530.47
2022-09-06T09:09:49.496Z,101533.56
2022-09-06T09:12:21.925Z,101530.28
2022-09-06T09:14:49.591Z,101528.47
2022-09-06T09:17:20.298Z,101524.25
2022-09-06T09:19:47.768Z,101525.81
2022-09-06T09:22:15.588Z,101510.56
2022-09-06T09:24:43.030Z,101514.09
2022-09-06T09:27:13.301Z,101511.88
2022-09-06T09:32:47.481Z,101510.03
2022-09-06T09:35:20.263Z,101504.25
2022-09-06T09:37:48.781Z,101510.00
2022-09-06T09:40:28.458Z,101505.22
2022-09-06T09:42:58.467Z,101512.97
2022-09-06T09:45:27.478Z,101509.00
2022-09-06T09:47:54.941Z,101508.50
2022-09-06T09:50:24.308Z,101490.16
2022-09-06T09:52:51.812Z,101491.88
2022-09-06T09:55:22.492Z,101481.56
2022-09-06T09:57:50.708Z,101477.34
2022-09-06T10:03:14.127Z,101486.50
2022-09-06T10:05:41.748Z,101476.78
2022-09-06T10:08:11.283Z,101470.16
2022-09-06T10:10:40.628Z,101468.03
2022-09-06T10:13:09.632Z,101478.63
2022-09-06T10:15:38.098Z,101474.38
2022-09-06T10:18:05.629Z,101468.44
2022-09-06T10:20:38.176Z,101479.19
2022-09-06T10:23:07.579Z,101480.28
2022-09-06T10:25:40.036Z,101473.97
2022-09-06T10:28:38.955Z,101474.94
2022-09-06T10:31:13.673Z,101472.38
2022-09-06T10:33:49.062Z,101462.13
2022-09-06T10:36:20.323Z,101454.91
2022-09-06T10:38:53.287Z,101459.44
2022-09-06T10:41:29.661Z,101460.13
2022-09-06T10:44:00.902Z,101445.34
2022-09-06T10:46:29.156Z,101450.13
2022-09-06T10:48:56.676Z,101443.66
2022-09-06T10:51:29.334Z,101439.41
2022-09-06T10:53:58.113Z,101435.34
2022-09-06T10:56:26.556Z,101435.47
2022-09-06T11:01:47.520Z,101430.00
2022-09-06T11:04:20.138Z,101432.66
2022-09-06T11:06:51.377Z,101435.19
2022-09-06T11:09:20.892Z,101428.44
2022-09-06T11:11:49.827Z,101433.19
2022-09-06T11:14:17.270Z,101433.19
2022-09-06T11:16:47.813Z,101437.56
2022-09-06T11:19:17.704Z,101437.28
2022-09-06T11:21:59.175Z,101434.13
2022-09-06T11:24:30.594Z,101429.34
2022-09-06T11:27:01.801Z,101424.16
2022-09-06T11:29:29.844Z,101425.28
2022-09-06T11:34:52.804Z,101413.22
2022-09-06T11:37:26.089Z,101424.72
2022-09-06T11:43:10.860Z,101416.28
2022-09-06T11:45:43.739Z,101410.94
2022-09-06T11:48:37.342Z,101414.06
2022-09-06T11:51:07.485Z,101411.25
2022-09-06T11:53:37.160Z,101407.19
2022-09-06T11:56:12.570Z,101401.81
2022-09-06T11:58:48.573Z,101399.28
2022-09-06T12:01:38.579Z,101403.50
2022-09-06T12:04:09.058Z,101401.13
2022-09-06T12:06:39.664Z,101403.91
2022-09-06T12:09:33.868Z,101403.34
2022-09-06T12:12:01.375Z,101404.75
2022-09-06T12:14:36.929Z,101402.22
2022-09-06T12:17:28.697Z,101400.22
2022-09-06T12:19:59.371Z,101398.81
2022-09-06T12:22:52.244Z,101402.88
2022-09-06T12:25:21.776Z,101395.41
2022-09-06T12:27:53.400Z,101393.00
2022-09-06T12:30:32.868Z,101396.13
2022-09-06T12:33:00.317Z,101388.41
2022-09-06T12:38:23.977Z,101379.34
2022-09-06T12:40:56.353Z,101376.13
2022-09-06T12:43:23.791Z,101380.78
2022-09-06T12:45:52.009Z,101376.72
2022-09-06T12:48:27.371Z,101378.38
2022-09-06T12:51:02.065Z,101367.09
2022-09-06T12:53:31.448Z,101371.22
2022-09-06T12:56:07.753Z,101370.06
2022-09-06T12:58:35.459Z,101364.75
2022-09-06T13:01:06.709Z,101367.59
2022-09-06T13:03:36.044Z,101360.50
2022-09-06T13:06:05.321Z,101353.06
2022-09-06T13:08:34.272Z,101351.19
2022-09-06T13:11:01.711Z,101343.69
2022-09-06T13:13:30.428Z,101354.38
2022-09-06T13:15:58.054Z,101351.16
2022-09-06T13:18:32.616Z,101336.69
2022-09-06T13:21:01.031Z,101336.22
2022-09-06T13:23:28.464Z,101347.78
2022-09-06T13:25:56.214Z,101334.97
2022-09-06T13:28:27.841Z,101338.63
2022-09-06T13:31:07.907Z,101323.84
2022-09-06T13:33:35.404Z,101328.94
2022-09-06T13:36:18.095Z,101321.84
2022-09-06T13:38:45.752Z,101337.38
2022-09-06T13:41:38.108Z,101325.84
2022-09-06T13:44:07.780Z,101331.47
2022-09-06T13:46:36.993Z,101335.53
2022-09-06T13:49:05.606Z,101336.28
2022-09-06T13:51:33.927Z,101327.97
2022-09-06T13:54:05.429Z,101330.91
2022-09-06T13:56:32.953Z,101329.63
2022-09-06T13:59:00.454Z,101343.84
2022-09-06T14:01:27.926Z,101332.84
2022-09-06T14:03:56.670Z,101333.69
2022-09-06T14:06:24.118Z,101335.69
2022-09-06T14:09:08.280Z,101332.88
2022-09-06T14:11:36.052Z,101335.13
2022-09-06T14:14:03.544Z,101331.19
2022-09-06T14:16:31.536Z,101328.66
2022-09-06T14:19:00.261Z,101334.97
2022-09-06T14:21:27.698Z,101335.66
2022-09-06T14:23:55.195Z,101337.09
2022-09-06T14:26:23.064Z,101328.25
2022-09-06T14:28:50.550Z,101319.66
2022-09-06T14:31:18.761Z,101330.75
2022-09-06T14:33:46.267Z,101316.81
2022-09-06T14:36:15.592Z,101314.53
2022-09-06T14:38:44.158Z,101322.63
2022-09-06T14:41:13.916Z,101312.47
2022-09-06T14:43:42.384Z,101306.56
2022-09-06T14:46:11.063Z,101300.47
2022-09-06T14:48:42.101Z,101304.16
2022-09-06T14:51:10.486Z,101301.34
2022-09-06T14:53:42.348Z,101297.97
2022-09-06T14:56:10.288Z,101296.97
2022-09-06T14:58:38.278Z,101300.34
2022-09-06T15:01:10.290Z,101309.03
2022-09-06T15:03:37.752Z,101313.81
2022-09-06T15:06:05.514Z,101309.97
2022-09-06T15:08:32.964Z,101297.19
2022-09-06T15:11:01.985Z,101306.22
2022-09-06T15:13:29.538Z,101298.66
2022-09-06T15:15:57.087Z,101291.19
2022-09-06T15:18:24.573Z,101290.03
2022-09-06T15:20:52.022Z,101297.63
2022-09-06T15:23:25.214Z,101286.06
2022-09-06T15:25:53.996Z,101273.13
2022-09-06T15:28:22.742Z,101278.19
2022-09-06T15:30:50.262Z,101277.91
2022-09-06T15:33:19.169Z,101263.50
2022-09-06T15:35:54.177Z,101261.50
2022-09-06T15:38:21.648Z,101262.09
2022-09-06T15:40:49.077Z,101266.81
2022-09-06T15:43:16.619Z,101264.44
2022-09-06T15:45:48.404Z,101263.59
2022-09-06T15:48:16.548Z,101255.56
2022-09-06T15:50:51.254Z,101259.22
2022-09-06T15:53:19.353Z,101255.84
2022-09-06T15:55:58.886Z,101262.09
2022-09-06T15:58:27.055Z,101257.25
2022-09-06T16:01:03.128Z,101250.16
2022-09-06T16:03:30.679Z,101250.56
2022-09-06T16:08:50.792Z,101242.41
2022-09-06T16:11:18.524Z,101235.31
2022-09-06T16:13:46.303Z,101238.38
2022-09-06T16:16:20.155Z,101244.81
2022-09-06T16:19:10.344Z,101240.56
2022-09-06T16:21:50.677Z,101244.47
2022-09-06T16:24:18.548Z,101247.50
2022-09-06T16:27:10.932Z,101241.72
2022-09-06T16:29:41.269Z,101249.44
2022-09-06T16:32:10.084Z,101250.47
2022-09-06T16:34:49.223Z,101238.59
2022-09-06T16:37:21.071Z,101240.28
2022-09-06T16:40:22.726Z,101240.81
2022-09-06T16:42:50.219Z,101244.47
2022-09-06T16:45:17.696Z,101240.69
2022-09-06T16:47:47.913Z,101246.63
2022-09-06T16:50:15.865Z,101243.66
2022-09-06T16:52:43.288Z,101241.13
2022-09-06T16:55:10.699Z,101249.91
2022-09-06T16:57:39.432Z,101244.03
2022-09-06T17:00:07.857Z,101239.19
2022-09-06T17:02:35.418Z,101243.09
2022-09-06T17:05:04.321Z,101230.41
2022-09-06T17:07:32.009Z,101232.09
2022-09-06T17:09:59.439Z,101235.06
2022-09-06T17:12:29.188Z,101226.50
2022-09-06T17:14:56.629Z,101227.03
2022-09-06T17:17:23.128Z,101224.44
2022-09-06T17:19:50.584Z,101233.03
2022-09-06T17:22:20.747Z,101225.81
2022-09-06T17:24:48.264Z,101227.81
2022-09-06T17:27:15.705Z,101237.69
2022-09-06T17:29:43.150Z,101235.16
2022-09-06T17:32:10.811Z,101238.38
2022-09-06T17:34:38.827Z,101230.63
2022-09-06T17:37:06.316Z,101228.78
2022-09-06T17:39:35.284Z,101228.66
2022-09-06T17:42:03.020Z,101224.44
2022-09-06T17:44:30.456Z,101227.44
2022-09-06T17:47:14.114Z,101233.47
2022-09-06T17:49:42.431Z,101232.09
2022-09-06T17:52:09.861Z,101224.75
2022-09-06T17:54:38.577Z,101229.28
2022-09-06T17:57:06.022Z,101222.75
2022-09-06T17:59:35.857Z,101229.50
2022-09-06T18:02:03.646Z,101227.81
2022-09-06T18:04:31.102Z,101232.34
2022-09-06T18:06:58.676Z,101241.91
2022-09-06T18:09:26.100Z,101238.53
2022-09-06T18:11:54.829Z,101242.91
2022-09-06T18:14:22.273Z,101243.88
2022-09-06T18:16:51.737Z,101243.06
2022-09-06T18:19:19.290Z,101242.19
2022-09-06T18:21:47.086Z,101240.69
2022-09-06T18:24:14.587Z,101247.53
2022-09-06T18:26:42.319Z,101248.56
2022-09-06T18:29:14.538Z,101252.22
2022-09-06T18:31:42.109Z,101251.25
2022-09-06T18:34:10.037Z,101254.91
2022-09-06T18:36:37.843Z,101256.88
2022-09-06T18:39:05.428Z,101259.56
2022-09-06T18:41:50.479Z,101269.31
2022-09-06T18:44:19.204Z,101259.44
2022-09-06T18:46:46.834Z,101250.41
2022-09-06T18:49:15.009Z,101246.88
2022-09-06T18:51:42.510Z,101243.50
2022-09-06T18:54:10.758Z,101244.19
2022-09-06T18:56:38.422Z,101243.88
2022-09-06T18:59:05.874Z,101249.53
2022-09-06T19:01:36.393Z,101242.38
2022-09-06T19:04:04.307Z,101247.25
2022-09-06T19:06:32.444Z,101247.53
2022-09-06T19:09:00.029Z,101243.59
2022-09-06T19:11:27.509Z,101244.72
2022-09-06T19:13:55.619Z,101244.13
2022-09-06T19:16:23.532Z,101244.28
2022-09-06T19:18:55.100Z,101238.22
2022-09-06T19:21:23.182Z,101244.13
2022-09-06T19:23:56.156Z,101243.53
2022-09-06T19:26:24.008Z,101237.41
2022-09-06T19:28:53.047Z,101241.31
2022-09-06T19:31:20.592Z,101240.31
2022-09-06T19:33:48.887Z,101247.75
2022-09-06T19:36:17.936Z,101245.63
2022-09-06T19:41:33.404Z,101253.72
2022-09-06T19:44:01.570Z,101251.91
2022-09-06T19:46:29.041Z,101246.41
2022-09-06T19:48:56.795Z,101244.84
2022-09-06T19:51:25.560Z,101226.91
2022-09-06T19:53:53.843Z,101233.97
2022-09-06T19:56:22.412Z,101225.94
2022-09-06T19:58:53.787Z,101231.81
2022-09-06T20:01:21.262Z,101231.97
2022-09-06T20:03:48.746Z,101228.31
2022-09-06T20:06:16.195Z,101238.03
2022-09-06T20:08:45.005Z,101227.56
2022-09-06T20:11:13.446Z,101233.66
2022-09-06T20:13:42.684Z,101230.44
2022-09-06T20:16:10.381Z,101236.09
2022-09-06T20:18:37.918Z,101237.09
2022-09-06T20:21:05.526Z,101228.03
2022-09-06T20:23:34.001Z,101227.91
2022-09-06T20:26:04.401Z,101232.97
2022-09-06T20:28:31.889Z,101231.28
2022-09-06T20:31:00.136Z,101222.53
2022-09-06T20:33:27.787Z,101221.56
2022-09-06T20:35:56.465Z,101225.75
2022-09-06T20:38:24.512Z,101224.78
2022-09-06T20:40:59.698Z,101231.00
2022-09-06T20:43:28.571Z,101217.72
2022-09-06T20:45:57.251Z,101214.91
2022-09-06T20:48:24.734Z,101224.78
2022-09-06T20:50:59.287Z,101216.59
2022-09-06T20:53:26.874Z,101217.13
2022-09-06T20:55:58.470Z,101212.59
2022-09-06T20:58:26.018Z,101204.72
2022-09-06T21:00:55.001Z,101194.59
2022-09-06T21:03:22.567Z,101187.16
2022-09-06T21:05:50.022Z,101185.66
2022-09-06T21:08:17.600Z,101178.28
2022-09-06T21:10:45.063Z,101178.13
2022-09-06T21:13:12.640Z,101184.19
2022-09-06T21:15:40.908Z,101187.53
2022-09-06T21:18:09.913Z,101182.19
2022-09-06T21:20:37.338Z,101185.00
2022-09-06T21:23:04.783Z,101181.34
2022-09-06T21:25:32.561Z,101177.97
2022-09-06T21:27:59.982Z,101185.00
2022-09-06T21:30:27.415Z,101175.16
2022-09-06T21:32:55.796Z,101179.81
2022-09-06T21:35:24.541Z,101185.34
2022-09-06T21:37:52.170Z,101183.66
2022-09-06T21:40:19.591Z,101180.81
2022-09-06T21:42:47.101Z,101184.47
2022-09-06T21:45:14.595Z,101176.59
2022-09-06T21:47:42.274Z,101176.75
2022-09-06T21:50:10.611Z,101174.41
2022-09-06T21:52:39.331Z,101172.84
2022-09-06T21:55:10.312Z,101163.28
2022-09-06T21:57:39.805Z,101163.28
2022-09-06T22:00:08.457Z,101158.91
2022-09-06T22:02:36.461Z,101152.50
2022-09-06T22:05:06.506Z,101154.13
2022-09-06T22:07:35.363Z,101149.75
2022-09-06T22:10:04.547Z,101147.91
2022-09-06T22:12:32.042Z,101140.25
2022-09-06T22:14:59.495Z,101140.94
2022-09-06T22:17:26.997Z,101140.94
2022-09-06T22:19:54.647Z,101128.63
2022-09-06T22:22:22.084Z,101125.31
2022-09-06T22:24:49.531Z,101132.59
2022-09-06T22:27:18.292Z,101119.06
2022-09-06T22:29:45.805Z,101112.22
2022-09-06T22:32:13.224Z,101120.94
2022-09-06T22:34:40.829Z,101119.97
2022-09-06T22:37:08.283Z,101122.66
2022-09-06T22:39:35.778Z,101119.13
2022-09-06T22:42:03.203Z,101116.28
2022-09-06T22:44:31.952Z,101123.47
2022-09-06T22:46:59.444Z,101114.63
2022-09-06T22:49:26.897Z,101108.25
2022-09-06T22:51:54.470Z,101117.97
2022-09-06T22:54:21.926Z,101116.13
2022-09-06T22:56:49.711Z,101107.09
2022-09-06T22:59:17.204Z,101107.34
2022-09-06T23:01:45.931Z,101107.34
2022-09-06T23:04:13.424Z,101101.13
2022-09-06T23:06:40.928Z,101101.13
2022-09-06T23:09:08.371Z,101100.28
2022-09-06T23:11:35.880Z,101097.44
2022-09-06T23:14:04.840Z,101092.63
2022-09-06T23:16:32.411Z,101092.63
2022-09-06T23:19:01.160Z,101090.41
2022-09-06T23:21:28.615Z,101092.25
2022-09-06T23:23:56.221Z,101094.09
2022-09-06T23:26:24.680Z,101096.31
2022-09-06T23:28:56.210Z,101091.25
2022-09-06T23:31:24.380Z,101085.22
2022-09-06T23:33:52.589Z,101092.38
2022-09-06T23:36:21.306Z,101079.69
2022-09-06T23:38:48.792Z,101092.91
2022-09-06T23:41:16.225Z,101092.91
2022-09-06T23:43:43.812Z,101091.41
2022-09-06T23:46:11.855Z,101086.03
2022-09-06T23:48:39.409Z,101093.94
2022-09-06T23:51:06.848Z,101099.13
2022-09-06T23:53:35.585Z,101101.97
2022-09-06T23:56:03.609Z,101117.75
2022-09-06T23:58:31.223Z,101116.19
